Lefroy, Canada
Current Conditions -  °F | °C
As of 3:03 AM on Monday 24 Nov 2014 (Local Time) from CYBN Reporting Station
Moderate Rain Moderate Rain  
Wind Chill: 40°   Ceiling: 600
Heat Index: 46°   Visibility: 3mi
Dew Point: 46°   Wind: 14mph
Humidity: 100%   Direction: 140°SE
Pressure: 29.28"   Gusts: 20mph
Location:  44.27°N, 79.55°W
Report Text: CYBN 240803Z AUTO 14012G17KT 3SM RA OVC006 OVC024 08/08 A2928
Loading
Personal Weather Stations






























Interactive Weather Map New forecast layout! Learn more

10-Day Weather Forecast

Advertisements
Track Severe Weather on mobile